sensor_id;sensor_type;location;lat;lon;timestamp;pressure;altitude;pressure_sealevel;temperature;humidity
71194;BME280;58903;47.210;8.618;2022-07-29T00:01:52;94190.44;;;29.78;34.55
71194;BME280;58903;47.210;8.618;2022-07-29T00:04:18;94186.19;;;29.77;34.67
71194;BME280;58903;47.210;8.618;2022-07-29T00:06:45;94187.66;;;29.78;34.84
71194;BME280;58903;47.210;8.618;2022-07-29T00:09:10;94182.88;;;29.78;35.27
71194;BME280;58903;47.210;8.618;2022-07-29T00:11:36;94172.88;;;29.75;34.91
71194;BME280;58903;47.210;8.618;2022-07-29T00:14:03;94177.69;;;29.75;34.88
71194;BME280;58903;47.210;8.618;2022-07-29T00:16:29;94177.69;;;29.75;34.52
71194;BME280;58903;47.210;8.618;2022-07-29T00:19:03;94176.38;;;29.76;34.92
71194;BME280;58903;47.210;8.618;2022-07-29T00:21:30;94173.63;;;29.76;34.98
71194;BME280;58903;47.210;8.618;2022-07-29T00:24:06;94169.38;;;29.75;34.50
71194;BME280;58903;47.210;8.618;2022-07-29T00:26:32;94173.41;;;29.74;35.07
71194;BME280;58903;47.210;8.618;2022-07-29T00:28:59;94165.09;;;29.74;35.40
71194;BME280;58903;47.210;8.618;2022-07-29T00:31:28;94160.81;;;29.73;34.64
71194;BME280;58903;47.210;8.618;2022-07-29T00:33:55;94160.31;;;29.74;35.18
71194;BME280;58903;47.210;8.618;2022-07-29T00:36:24;94158.78;;;29.73;35.06
71194;BME280;58903;47.210;8.618;2022-07-29T00:38:51;94167.88;;;29.74;34.77
71194;BME280;58903;47.210;8.618;2022-07-29T00:41:18;94159.56;;;29.74;34.56
71194;BME280;58903;47.210;8.618;2022-07-29T00:43:45;94162.31;;;29.74;34.61
71194;BME280;58903;47.210;8.618;2022-07-29T00:46:15;94159.31;;;29.72;34.99
71194;BME280;58903;47.210;8.618;2022-07-29T00:48:44;94156.78;;;29.74;34.32
71194;BME280;58903;47.210;8.618;2022-07-29T00:51:10;94154.53;;;29.72;34.49
71194;BME280;58903;47.210;8.618;2022-07-29T00:53:37;94151.00;;;29.72;34.68
71194;BME280;58903;47.210;8.618;2022-07-29T00:56:05;94139.72;;;29.70;34.45
71194;BME280;58903;47.210;8.618;2022-07-29T00:58:31;94139.94;;;29.72;35.13
71194;BME280;58903;47.210;8.618;2022-07-29T01:00:58;94142.50;;;29.70;34.61
71194;BME280;58903;47.210;8.618;2022-07-29T01:03:24;94148.03;;;29.70;34.65
71194;BME280;58903;47.210;8.618;2022-07-29T01:05:54;94136.19;;;29.69;34.94
71194;BME280;58903;47.210;8.618;2022-07-29T01:08:23;94132.69;;;29.69;34.43
71194;BME280;58903;47.210;8.618;2022-07-29T01:10:53;94128.44;;;29.68;35.37
71194;BME280;58903;47.210;8.618;2022-07-29T01:13:20;94129.91;;;29.69;34.56
71194;BME280;58903;47.210;8.618;2022-07-29T01:15:54;94129.91;;;29.69;34.63
71194;BME280;58903;47.210;8.618;2022-07-29T01:18:31;94117.16;;;29.66;35.26
71194;BME280;58903;47.210;8.618;2022-07-29T01:30:54;94115.84;;;29.67;35.28
71194;BME280;58903;47.210;8.618;2022-07-29T01:33:25;94114.38;;;29.66;34.88
71194;BME280;58903;47.210;8.618;2022-07-29T01:36:16;94113.84;;;29.67;35.15
71194;BME280;58903;47.210;8.618;2022-07-29T01:38:50;94112.38;;;29.66;35.54
71194;BME280;58903;47.210;8.618;2022-07-29T01:41:22;94121.19;;;29.65;35.16
71194;BME280;58903;47.210;8.618;2022-07-29T01:43:57;94123.25;;;29.64;34.20
71194;BME280;58903;47.210;8.618;2022-07-29T01:46:37;94122.50;;;29.64;34.81
71194;BME280;58903;47.210;8.618;2022-07-29T01:49:15;94120.47;;;29.64;35.10
71194;BME280;58903;47.210;8.618;2022-07-29T01:52:26;94115.66;;;29.65;34.62
71194;BME280;58903;47.210;8.618;2022-07-29T01:55:25;94103.84;;;29.64;35.32
71194;BME280;58903;47.210;8.618;2022-07-29T01:57:59;94110.66;;;29.63;34.52
71194;BME280;58903;47.210;8.618;2022-07-29T02:00:31;94114.94;;;29.64;34.64
71194;BME280;58903;47.210;8.618;2022-07-29T02:03:08;94115.47;;;29.63;34.59
71194;BME280;58903;47.210;8.618;2022-07-29T02:05:41;94112.69;;;29.63;34.82
71194;BME280;58903;47.210;8.618;2022-07-29T02:08:10;94118.97;;;29.63;34.53
71194;BME280;58903;47.210;8.618;2022-07-29T02:10:50;94117.50;;;29.62;34.43
71194;BME280;58903;47.210;8.618;2022-07-29T02:13:21;94118.22;;;29.63;34.68
71194;BME280;58903;47.210;8.618;2022-07-29T02:15:51;94114.72;;;29.62;35.02
71194;BME280;58903;47.210;8.618;2022-07-29T02:18:55;94123.03;;;29.62;34.59
71194;BME280;58903;47.210;8.618;2022-07-29T02:21:35;94115.63;;;29.57;34.78
71194;BME280;58903;47.210;8.618;2022-07-29T02:24:04;94121.91;;;29.58;34.67
71194;BME280;58903;47.210;8.618;2022-07-29T02:26:35;94115.06;;;29.59;34.23
71194;BME280;58903;47.210;8.618;2022-07-29T02:29:13;94122.63;;;29.58;34.37
71194;BME280;58903;47.210;8.618;2022-07-29T02:31:53;94114.13;;;29.56;34.62
71194;BME280;58903;47.210;8.618;2022-07-29T02:34:53;94121.91;;;29.58;35.08
71194;BME280;58903;47.210;8.618;2022-07-29T02:37:21;94131.50;;;29.57;34.70
71194;BME280;58903;47.210;8.618;2022-07-29T02:39:58;94131.50;;;29.57;34.93
71194;BME280;58903;47.210;8.618;2022-07-29T02:42:26;94132.25;;;29.57;34.67
71194;BME280;58903;47.210;8.618;2022-07-29T02:45:04;94124.47;;;29.56;35.05
71194;BME280;58903;47.210;8.618;2022-07-29T02:47:49;94117.44;;;29.55;34.25
71194;BME280;58903;47.210;8.618;2022-07-29T02:50:48;94118.91;;;29.56;35.02
71194;BME280;58903;47.210;8.618;2022-07-29T02:53:19;94118.91;;;29.56;35.20
71194;BME280;58903;47.210;8.618;2022-07-29T02:56:08;94123.00;;;29.55;34.42
71194;BME280;58903;47.210;8.618;2022-07-29T02:58:57;94111.16;;;29.54;34.31
71194;BME280;58903;47.210;8.618;2022-07-29T03:01:45;94108.94;;;29.53;34.53
71194;BME280;58903;47.210;8.618;2022-07-29T03:04:30;94116.69;;;29.54;34.70
71194;BME280;58903;47.210;8.618;2022-07-29T03:07:01;94114.47;;;29.53;34.56
71194;BME280;58903;47.210;8.618;2022-07-29T03:09:29;94120.78;;;29.53;34.78
71194;BME280;58903;47.210;8.618;2022-07-29T03:11:59;94124.06;;;29.52;34.60
71194;BME280;58903;47.210;8.618;2022-07-29T03:14:31;94122.78;;;29.53;34.80
71194;BME280;58903;47.210;8.618;2022-07-29T03:16:58;94126.84;;;29.52;34.77
71194;BME280;58903;47.210;8.618;2022-07-29T03:19:40;94130.91;;;29.51;34.60
71194;BME280;58903;47.210;8.618;2022-07-29T03:22:40;94139.97;;;29.51;34.29
71194;BME280;58903;47.210;8.618;2022-07-29T03:25:20;94144.00;;;29.50;34.50
71194;BME280;58903;47.210;8.618;2022-07-29T03:27:48;94141.25;;;29.50;34.55
71194;BME280;58903;47.210;8.618;2022-07-29T03:30:24;94151.78;;;29.52;34.19
71194;BME280;58903;47.210;8.618;2022-07-29T03:32:56;94157.13;;;29.50;34.93
71194;BME280;58903;47.210;8.618;2022-07-29T03:35:38;94160.66;;;29.50;34.44
71194;BME280;58903;47.210;8.618;2022-07-29T03:38:18;94171.72;;;29.50;34.45
71194;BME280;58903;47.210;8.618;2022-07-29T03:41:02;94169.50;;;29.49;34.50
71194;BME280;58903;47.210;8.618;2022-07-29T03:43:41;94160.66;;;29.50;35.24
71194;BME280;58903;47.210;8.618;2022-07-29T03:46:20;94153.59;;;29.49;34.51
71194;BME280;58903;47.210;8.618;2022-07-29T03:49:21;94156.94;;;29.48;34.41
71194;BME280;58903;47.210;8.618;2022-07-29T03:51:52;94150.63;;;29.47;34.65
71194;BME280;58903;47.210;8.618;2022-07-29T03:54:52;94151.38;;;29.48;34.71
71194;BME280;58903;47.210;8.618;2022-07-29T03:57:30;94156.94;;;29.48;34.98
71194;BME280;58903;47.210;8.618;2022-07-29T04:00:08;94164.50;;;29.47;34.08
71194;BME280;58903;47.210;8.618;2022-07-29T04:02:37;94166.53;;;29.47;34.22
71194;BME280;58903;47.210;8.618;2022-07-29T04:05:19;94167.06;;;29.45;34.98
71194;BME280;58903;47.210;8.618;2022-07-29T04:07:54;94169.13;;;29.45;34.36
71194;BME280;58903;47.210;8.618;2022-07-29T04:10:36;94171.88;;;29.45;34.32
71194;BME280;58903;47.210;8.618;2022-07-29T04:13:05;94159.31;;;29.44;34.69
71194;BME280;58903;47.210;8.618;2022-07-29T04:15:31;94155.78;;;29.43;34.23
71194;BME280;58903;47.210;8.618;2022-07-29T04:17:59;94149.72;;;29.45;34.98
71194;BME280;58903;47.210;8.618;2022-07-29T04:20:25;94146.00;;;29.42;34.70
71194;BME280;58903;47.210;8.618;2022-07-29T04:22:55;94148.97;;;29.44;34.60
71194;BME280;58903;47.210;8.618;2022-07-29T04:25:21;94147.88;;;29.47;35.00
71194;BME280;58903;47.210;8.618;2022-07-29T04:27:47;94152.69;;;29.47;34.75
71194;BME280;58903;47.210;8.618;2022-07-29T04:30:29;94145.84;;;29.48;34.56
71194;BME280;58903;47.210;8.618;2022-07-29T04:32:57;94151.38;;;29.48;33.96
71194;BME280;58903;47.210;8.618;2022-07-29T04:35:25;94144.00;;;29.50;34.55
71194;BME280;58903;47.210;8.618;2022-07-29T04:37:52;94130.72;;;29.49;34.36
71194;BME280;58903;47.210;8.618;2022-07-29T04:40:28;94132.19;;;29.50;34.56
71194;BME280;58903;47.210;8.618;2022-07-29T04:43:07;94134.44;;;29.51;34.48
71194;BME280;58903;47.210;8.618;2022-07-29T04:45:40;94139.97;;;29.51;34.54
71194;BME280;58903;47.210;8.618;2022-07-29T04:48:15;94133.47;;;29.49;34.07
71194;BME280;58903;47.210;8.618;2022-07-29T04:50:42;94128.66;;;29.49;35.11
71194;BME280;58903;47.210;8.618;2022-07-29T04:53:14;94123.88;;;29.50;34.14
71194;BME280;58903;47.210;8.618;2022-07-29T04:55:42;94128.13;;;29.51;34.60
71194;BME280;58903;47.210;8.618;2022-07-29T04:58:15;94128.13;;;29.51;34.56
71194;BME280;58903;47.210;8.618;2022-07-29T05:00:41;94123.66;;;29.48;34.42
71194;BME280;58903;47.210;8.618;2022-07-29T05:03:07;94133.69;;;29.51;34.57
71194;BME280;58903;47.210;8.618;2022-07-29T05:05:33;94133.69;;;29.51;34.17
71194;BME280;58903;47.210;8.618;2022-07-29T05:07:59;94132.38;;;29.52;35.00
71194;BME280;58903;47.210;8.618;2022-07-29T05:10:25;94139.22;;;29.51;34.28
71194;BME280;58903;47.210;8.618;2022-07-29T05:12:51;94125.16;;;29.49;34.68
71194;BME280;58903;47.210;8.618;2022-07-29T05:15:19;94129.41;;;29.50;34.71
71194;BME280;58903;47.210;8.618;2022-07-29T05:17:45;94125.16;;;29.49;34.24
71194;BME280;58903;47.210;8.618;2022-07-29T05:20:14;94120.34;;;29.49;34.84
71194;BME280;58903;47.210;8.618;2022-07-29T05:22:44;94125.91;;;29.49;34.36
71194;BME280;58903;47.210;8.618;2022-07-29T05:25:17;94128.47;;;29.47;34.73
71194;BME280;58903;47.210;8.618;2022-07-29T05:27:53;94131.22;;;29.47;34.24
71194;BME280;58903;47.210;8.618;2022-07-29T05:30:28;94140.50;;;29.50;34.60
71194;BME280;58903;47.210;8.618;2022-07-29T05:33:06;94132.72;;;29.48;34.79
71194;BME280;58903;47.210;8.618;2022-07-29T05:35:44;94136.06;;;29.47;33.86
71194;BME280;58903;47.210;8.618;2022-07-29T05:38:14;94142.31;;;29.47;34.95
71194;BME280;58903;47.210;8.618;2022-07-29T05:40:42;94144.38;;;29.47;34.17
71194;BME280;58903;47.210;8.618;2022-07-29T05:43:12;94137.34;;;29.46;34.57
71194;BME280;58903;47.210;8.618;2022-07-29T05:45:40;94138.06;;;29.46;34.15
71194;BME280;58903;47.210;8.618;2022-07-29T05:48:09;94146.94;;;29.45;34.46
71194;BME280;58903;47.210;8.618;2022-07-29T05:50:34;94146.19;;;29.44;34.47
71194;BME280;58903;47.210;8.618;2022-07-29T05:53:06;94151.19;;;29.46;34.39
71194;BME280;58903;47.210;8.618;2022-07-29T05:55:43;94151.38;;;29.48;34.24
71194;BME280;58903;47.210;8.618;2022-07-29T05:58:09;94147.13;;;29.47;34.40
71194;BME280;58903;47.210;8.618;2022-07-29T06:00:44;94148.41;;;29.46;34.44
71194;BME280;58903;47.210;8.618;2022-07-29T06:03:12;94154.16;;;29.48;34.13
71194;BME280;58903;47.210;8.618;2022-07-29T06:06:09;94159.69;;;29.48;34.87
71194;BME280;58903;47.210;8.618;2022-07-29T06:08:44;94161.72;;;29.47;34.47
71194;BME280;58903;47.210;8.618;2022-07-29T06:11:12;94168.00;;;29.48;34.34
71194;BME280;58903;47.210;8.618;2022-07-29T06:13:40;94158.22;;;29.47;34.58
71194;BME280;58903;47.210;8.618;2022-07-29T06:16:08;94166.53;;;29.47;34.49
71194;BME280;58903;47.210;8.618;2022-07-29T06:18:36;94170.59;;;29.46;34.03
71194;BME280;58903;47.210;8.618;2022-07-29T06:21:07;94191.47;;;29.47;34.15
71194;BME280;58903;47.210;8.618;2022-07-29T06:23:45;94185.50;;;29.43;34.76
71194;BME280;58903;47.210;8.618;2022-07-29T06:26:13;94193.41;;;29.39;34.86
71194;BME280;58903;47.210;8.618;2022-07-29T06:28:51;94210.03;;;29.39;34.72
71194;BME280;58903;47.210;8.618;2022-07-29T06:31:19;94214.63;;;29.36;34.51
71194;BME280;58903;47.210;8.618;2022-07-29T06:33:54;94219.97;;;29.34;34.36
71194;BME280;58903;47.210;8.618;2022-07-29T06:36:22;94228.84;;;29.33;34.79
71194;BME280;58903;47.210;8.618;2022-07-29T06:38:50;94246.75;;;29.32;34.75
71194;BME280;58903;47.210;8.618;2022-07-29T06:41:18;94266.88;;;29.32;34.62
71194;BME280;58903;47.210;8.618;2022-07-29T06:43:44;94263.91;;;29.30;34.82
71194;BME280;58903;47.210;8.618;2022-07-29T06:46:19;94270.94;;;29.31;35.06
71194;BME280;58903;47.210;8.618;2022-07-29T06:48:45;94272.97;;;29.31;34.75
71194;BME280;58903;47.210;8.618;2022-07-29T06:51:14;94269.44;;;29.30;35.08
71194;BME280;58903;47.210;8.618;2022-07-29T06:53:40;94271.25;;;29.28;35.35
71194;BME280;58903;47.210;8.618;2022-07-29T06:56:07;94272.00;;;29.28;35.16
71194;BME280;58903;47.210;8.618;2022-07-29T06:58:38;94277.00;;;29.30;35.10
71194;BME280;58903;47.210;8.618;2022-07-29T07:01:05;94273.50;;;29.29;35.57
71194;BME280;58903;47.210;8.618;2022-07-29T07:03:35;94261.69;;;29.29;35.73
71194;BME280;58903;47.210;8.618;2022-07-29T07:06:03;94265.19;;;29.29;35.22
71194;BME280;58903;47.210;8.618;2022-07-29T07:08:29;94255.72;;;29.25;35.20
71194;BME280;58903;47.210;8.618;2022-07-29T07:10:57;94251.88;;;29.28;35.29
71194;BME280;58903;47.210;8.618;2022-07-29T07:13:25;94247.41;;;29.25;35.17
71194;BME280;58903;47.210;8.618;2022-07-29T07:15:51;94243.34;;;29.26;34.95
71194;BME280;58903;47.210;8.618;2022-07-29T07:18:21;94242.09;;;29.27;35.09
71194;BME280;58903;47.210;8.618;2022-07-29T07:20:49;94246.13;;;29.26;35.22
71194;BME280;58903;47.210;8.618;2022-07-29T07:23:24;94253.91;;;29.27;35.06
71194;BME280;58903;47.210;8.618;2022-07-29T07:25:50;94242.84;;;29.27;35.51
71194;BME280;58903;47.210;8.618;2022-07-29T07:28:16;94235.03;;;29.26;35.18
71194;BME280;58903;47.210;8.618;2022-07-29T07:30:45;94242.09;;;29.27;35.00
71194;BME280;58903;47.210;8.618;2022-07-29T07:33:11;94244.84;;;29.27;35.81
71194;BME280;58903;47.210;8.618;2022-07-29T07:35:37;94242.41;;;29.23;35.67
71194;BME280;58903;47.210;8.618;2022-07-29T07:38:04;94235.59;;;29.24;35.01
71194;BME280;58903;47.210;8.618;2022-07-29T07:40:31;94238.91;;;29.23;35.82
71194;BME280;58903;47.210;8.618;2022-07-29T07:42:57;94241.66;;;29.23;35.50
71194;BME280;58903;47.210;8.618;2022-07-29T07:45:25;94250.72;;;29.23;35.64
71194;BME280;58903;47.210;8.618;2022-07-29T07:47:54;94254.78;;;29.22;36.14
71194;BME280;58903;47.210;8.618;2022-07-29T07:50:20;94261.06;;;29.23;35.75
71194;BME280;58903;47.210;8.618;2022-07-29T07:52:54;94263.44;;;29.19;35.96
71194;BME280;58903;47.210;8.618;2022-07-29T07:55:21;94252.56;;;29.21;36.01
71194;BME280;58903;47.210;8.618;2022-07-29T07:57:58;94253.47;;;29.23;35.84
71194;BME280;58903;47.210;8.618;2022-07-29T08:00:27;94249.97;;;29.23;36.05
71194;BME280;58903;47.210;8.618;2022-07-29T08:02:53;94252.75;;;29.23;35.74
71194;BME280;58903;47.210;8.618;2022-07-29T08:05:19;94249.97;;;29.23;36.02
71194;BME280;58903;47.210;8.618;2022-07-29T08:07:50;94249.22;;;29.22;35.55
71194;BME280;58903;47.210;8.618;2022-07-29T08:10:18;94252.00;;;29.22;35.78
71194;BME280;58903;47.210;8.618;2022-07-29T08:13:07;94249.22;;;29.22;35.47
71194;BME280;58903;47.210;8.618;2022-07-29T08:15:34;94250.50;;;29.21;35.95
71194;BME280;58903;47.210;8.618;2022-07-29T08:18:17;94254.78;;;29.22;36.24
71194;BME280;58903;47.210;8.618;2022-07-29T08:20:50;94250.72;;;29.23;35.99
71194;BME280;58903;47.210;8.618;2022-07-29T08:23:23;94259.78;;;29.24;36.03
71194;BME280;58903;47.210;8.618;2022-07-29T08:26:00;94259.97;;;29.26;36.42
71194;BME280;58903;47.210;8.618;2022-07-29T08:28:40;94271.25;;;29.28;35.84
71194;BME280;58903;47.210;8.618;2022-07-29T08:31:07;94259.44;;;29.27;35.91
71194;BME280;58903;47.210;8.618;2022-07-29T08:33:40;94268.69;;;29.30;35.86
71194;BME280;58903;47.210;8.618;2022-07-29T08:36:15;94272.41;;;29.32;36.41
71194;BME280;58903;47.210;8.618;2022-07-29T08:38:43;94284.25;;;29.33;35.80
71194;BME280;58903;47.210;8.618;2022-07-29T08:41:19;94284.44;;;29.35;35.76
71194;BME280;58903;47.210;8.618;2022-07-29T08:43:58;94276.13;;;29.35;36.07
71194;BME280;58903;47.210;8.618;2022-07-29T08:46:29;94276.88;;;29.35;35.84
71194;BME280;58903;47.210;8.618;2022-07-29T08:49:02;94279.13;;;29.37;35.98
71194;BME280;58903;47.210;8.618;2022-07-29T08:51:30;94276.34;;;29.37;36.27
71194;BME280;58903;47.210;8.618;2022-07-29T08:54:26;94264.75;;;29.38;36.31
71194;BME280;58903;47.210;8.618;2022-07-29T08:56:55;94266.22;;;29.39;35.58
71194;BME280;58903;47.210;8.618;2022-07-29T08:59:42;94266.41;;;29.41;35.84
71194;BME280;58903;47.210;8.618;2022-07-29T09:02:19;94266.22;;;29.39;35.93
71194;BME280;58903;47.210;8.618;2022-07-29T09:04:59;94272.72;;;29.42;35.99
71194;BME280;58903;47.210;8.618;2022-07-29T09:07:29;94267.50;;;29.38;35.88
71194;BME280;58903;47.210;8.618;2022-07-29T09:10:06;94269.19;;;29.41;36.05
71194;BME280;58903;47.210;8.618;2022-07-29T09:12:39;94261.63;;;29.42;36.83
71194;BME280;58903;47.210;8.618;2022-07-29T09:15:06;94258.84;;;29.42;36.56
71194;BME280;58903;47.210;8.618;2022-07-29T09:17:46;94258.31;;;29.43;36.17
71194;BME280;58903;47.210;8.618;2022-07-29T09:20:19;94259.81;;;29.44;36.52
71194;BME280;58903;47.210;8.618;2022-07-29T09:22:45;94264.81;;;29.46;36.49
71194;BME280;58903;47.210;8.618;2022-07-29T09:25:36;94273.66;;;29.44;36.18
71194;BME280;58903;47.210;8.618;2022-07-29T09:28:09;94265.56;;;29.46;37.19
71194;BME280;58903;47.210;8.618;2022-07-29T09:30:53;94262.78;;;29.46;36.85
71194;BME280;58903;47.210;8.618;2022-07-29T09:33:21;94255.94;;;29.47;36.85
71194;BME280;58903;47.210;8.618;2022-07-29T09:39:02;94254.66;;;29.48;36.76
71194;BME280;58903;47.210;8.618;2022-07-29T09:41:51;94255.22;;;29.47;36.77
71194;BME280;58903;47.210;8.618;2022-07-29T09:44:49;94256.69;;;29.48;37.37
71194;BME280;58903;47.210;8.618;2022-07-29T09:47:46;94262.97;;;29.48;37.36
71194;BME280;58903;47.210;8.618;2022-07-29T09:50:16;94259.47;;;29.48;37.44
71194;BME280;58903;47.210;8.618;2022-07-29T09:52:50;94249.88;;;29.49;37.62
71194;BME280;58903;47.210;8.618;2022-07-29T09:55:25;94252.66;;;29.49;37.30
71194;BME280;58903;47.210;8.618;2022-07-29T09:58:26;94247.09;;;29.49;37.42
71194;BME280;58903;47.210;8.618;2022-07-29T10:00:54;94251.69;;;29.46;37.77
71194;BME280;58903;47.210;8.618;2022-07-29T10:03:51;94257.97;;;29.47;37.51
71194;BME280;58903;47.210;8.618;2022-07-29T10:06:20;94254.47;;;29.46;38.21
71194;BME280;58903;47.210;8.618;2022-07-29T10:09:15;94255.22;;;29.47;37.45
71194;BME280;58903;47.210;8.618;2022-07-29T10:12:13;94255.94;;;29.47;37.97
71194;BME280;58903;47.210;8.618;2022-07-29T10:14:41;94246.69;;;29.45;37.98
71194;BME280;58903;47.210;8.618;2022-07-29T10:17:09;94253.16;;;29.47;38.06
71194;BME280;58903;47.210;8.618;2022-07-29T10:19:37;94253.72;;;29.46;38.08
71194;BME280;58903;47.210;8.618;2022-07-29T10:22:15;94248.16;;;29.46;37.64
71194;BME280;58903;47.210;8.618;2022-07-29T10:24:41;94239.31;;;29.47;37.61
71194;BME280;58903;47.210;8.618;2022-07-29T10:27:45;94242.44;;;29.44;38.15
71194;BME280;58903;47.210;8.618;2022-07-29T10:30:17;94235.38;;;29.43;37.69
71194;BME280;58903;47.210;8.618;2022-07-29T10:42:22;94238.50;;;29.39;38.06
71194;BME280;58903;47.210;8.618;2022-07-29T10:45:06;94240.00;;;29.40;38.16
71194;BME280;58903;47.210;8.618;2022-07-29T10:48:04;94230.41;;;29.41;38.22
71194;BME280;58903;47.210;8.618;2022-07-29T10:54:13;94231.16;;;29.42;38.26
71194;BME280;58903;47.210;8.618;2022-07-29T10:56:40;94229.66;;;29.41;38.38
71194;BME280;58903;47.210;8.618;2022-07-29T10:59:23;94234.13;;;29.44;37.79
71194;BME280;58903;47.210;8.618;2022-07-29T11:01:56;94230.78;;;29.45;38.40
71194;BME280;58903;47.210;8.618;2022-07-29T11:07:11;94224.09;;;29.41;38.61
71194;BME280;58903;47.210;8.618;2022-07-29T11:09:38;94235.63;;;29.45;37.87
71194;BME280;58903;47.210;8.618;2022-07-29T11:15:04;94234.31;;;29.46;38.40
71194;BME280;58903;47.210;8.618;2022-07-29T11:23:36;94234.88;;;29.44;38.08
71194;BME280;58903;47.210;8.618;2022-07-29T11:26:31;94230.06;;;29.45;38.19
71194;BME280;58903;47.210;8.618;2022-07-29T11:29:04;94232.63;;;29.43;38.18
71194;BME280;58903;47.210;8.618;2022-07-29T11:35:21;94227.31;;;29.45;37.73
71194;BME280;58903;47.210;8.618;2022-07-29T11:41:30;94235.94;;;29.41;37.85
71194;BME280;58903;47.210;8.618;2022-07-29T11:44:12;94221.88;;;29.39;37.78
71194;BME280;58903;47.210;8.618;2022-07-29T11:47:18;94229.84;;;29.43;37.48
71194;BME280;58903;47.210;8.618;2022-07-29T11:50:09;94231.16;;;29.42;37.91
71194;BME280;58903;47.210;8.618;2022-07-29T11:53:15;94234.13;;;29.44;37.52
71194;BME280;58903;47.210;8.618;2022-07-29T11:56:00;94229.66;;;29.41;37.71
71194;BME280;58903;47.210;8.618;2022-07-29T11:59:07;94225.59;;;29.42;38.59
71194;BME280;58903;47.210;8.618;2022-07-29T12:02:02;94231.16;;;29.42;38.63
71194;BME280;58903;47.210;8.618;2022-07-29T12:07:19;94246.28;;;29.41;37.84
71194;BME280;58903;47.210;8.618;2022-07-29T12:10:05;94243.69;;;29.43;38.30
71194;BME280;58903;47.210;8.618;2022-07-29T12:13:03;94257.34;;;29.41;37.83
71194;BME280;58903;47.210;8.618;2022-07-29T12:15:29;94266.63;;;29.43;38.08
71194;BME280;58903;47.210;8.618;2022-07-29T12:17:55;94262.56;;;29.44;37.60
71194;BME280;58903;47.210;8.618;2022-07-29T12:20:29;94266.63;;;29.43;37.95
71194;BME280;58903;47.210;8.618;2022-07-29T12:23:10;94271.41;;;29.43;38.04
71194;BME280;58903;47.210;8.618;2022-07-29T12:25:42;94264.59;;;29.44;38.28
71194;BME280;58903;47.210;8.618;2022-07-29T12:28:25;94265.88;;;29.43;38.10
71194;BME280;58903;47.210;8.618;2022-07-29T12:31:11;94260.31;;;29.43;38.31
71194;BME280;58903;47.210;8.618;2022-07-29T12:33:59;94274.41;;;29.45;37.83
71194;BME280;58903;47.210;8.618;2022-07-29T12:36:25;94273.13;;;29.46;38.06
71194;BME280;58903;47.210;8.618;2022-07-29T12:38:55;94278.66;;;29.46;37.65
71194;BME280;58903;47.210;8.618;2022-07-29T12:41:39;94275.34;;;29.47;37.90
71194;BME280;58903;47.210;8.618;2022-07-29T12:44:06;94273.88;;;29.46;38.59
71194;BME280;58903;47.210;8.618;2022-07-29T12:47:03;94288.47;;;29.47;38.24
71194;BME280;58903;47.210;8.618;2022-07-29T12:49:51;94292.31;;;29.44;38.81
71194;BME280;58903;47.210;8.618;2022-07-29T12:53:09;94297.31;;;29.45;38.18
71194;BME280;58903;47.210;8.618;2022-07-29T12:55:48;94297.66;;;29.42;37.76
71194;BME280;58903;47.210;8.618;2022-07-29T12:58:55;94299.66;;;29.41;37.68
71194;BME280;58903;47.210;8.618;2022-07-29T13:01:36;94297.66;;;29.42;38.07
71194;BME280;58903;47.210;8.618;2022-07-29T13:04:04;94303.53;;;29.38;38.46
71194;BME280;58903;47.210;8.618;2022-07-29T13:07:03;94308.72;;;29.42;38.51
71194;BME280;58903;47.210;8.618;2022-07-29T13:09:48;94301.88;;;29.43;38.26
71194;BME280;58903;47.210;8.618;2022-07-29T13:12:18;94306.91;;;29.44;38.51
71194;BME280;58903;47.210;8.618;2022-07-29T13:14:46;94310.44;;;29.45;37.68
71194;BME280;58903;47.210;8.618;2022-07-29T13:19:45;94313.94;;;29.45;38.14
71194;BME280;58903;47.210;8.618;2022-07-29T13:22:13;94309.13;;;29.46;37.56
71194;BME280;58903;47.210;8.618;2022-07-29T13:24:54;94314.13;;;29.47;38.13
71194;BME280;58903;47.210;8.618;2022-07-29T13:27:26;94317.09;;;29.49;37.75
71194;BME280;58903;47.210;8.618;2022-07-29T13:29:56;94312.31;;;29.50;38.26
71194;BME280;58903;47.210;8.618;2022-07-29T13:32:27;94322.13;;;29.51;38.02
71194;BME280;58903;47.210;8.618;2022-07-29T13:34:54;94316.59;;;29.51;37.38
71194;BME280;58903;47.210;8.618;2022-07-29T13:37:21;94318.19;;;29.46;37.89
71194;BME280;58903;47.210;8.618;2022-07-29T13:39:49;94323.94;;;29.48;37.42
71194;BME280;58903;47.210;8.618;2022-07-29T13:42:15;94326.19;;;29.50;37.41
71194;BME280;58903;47.210;8.618;2022-07-29T13:44:41;94325.41;;;29.49;37.98
71194;BME280;58903;47.210;8.618;2022-07-29T13:47:09;94324.91;;;29.51;37.44
71194;BME280;58903;47.210;8.618;2022-07-29T13:49:35;94321.38;;;29.50;37.18
71194;BME280;58903;47.210;8.618;2022-07-29T13:52:03;94320.63;;;29.50;37.50
71194;BME280;58903;47.210;8.618;2022-07-29T13:54:32;94322.13;;;29.51;37.75
71194;BME280;58903;47.210;8.618;2022-07-29T13:56:58;94321.38;;;29.50;37.26
71194;BME280;58903;47.210;8.618;2022-07-29T13:59:26;94323.00;;;29.46;37.89
71194;BME280;58903;47.210;8.618;2022-07-29T14:01:52;94327.25;;;29.47;37.46
71194;BME280;58903;47.210;8.618;2022-07-29T14:04:22;94328.53;;;29.46;37.41
71194;BME280;58903;47.210;8.618;2022-07-29T14:06:53;94326.50;;;29.46;37.98
71194;BME280;58903;47.210;8.618;2022-07-29T14:09:21;94333.53;;;29.47;38.16
71194;BME280;58903;47.210;8.618;2022-07-29T14:11:50;94341.31;;;29.49;37.35
71194;BME280;58903;47.210;8.618;2022-07-29T14:14:19;94337.25;;;29.50;37.51
71194;BME280;58903;47.210;8.618;2022-07-29T14:16:46;94345.56;;;29.50;37.08
71194;BME280;58903;47.210;8.618;2022-07-29T14:19:14;94351.88;;;29.50;37.97
71194;BME280;58903;47.210;8.618;2022-07-29T14:21:40;94346.31;;;29.50;37.71
71194;BME280;58903;47.210;8.618;2022-07-29T14:24:07;94352.22;;;29.47;37.69
71194;BME280;58903;47.210;8.618;2022-07-29T14:26:33;94356.25;;;29.46;38.11
71194;BME280;58903;47.210;8.618;2022-07-29T14:28:59;94362.00;;;29.48;37.75